Time;durP1;ratioP1;P1;durP2;ratioP2;P2;SDS_P1;SDS_P2;PMS_P1;PMS_P2;Temp;Humidity;BMP_temperature;BMP_pressure;BME280_temperature;BME280_humidity;BME280_pressure;Samples;Min_cycle;Max_cycle;Signal;HPM_P1;HPM_P2
2022/02/16 00:00:58;;;;;;;;;;;;;;;6.42;100.00;97940.48;1647219;86;20667;-87
2022/02/16 00:03:24;;;;;;;;;;;;;;;6.45;100.00;97941.59;1649122;86;24893;-83
2022/02/16 00:05:50;;;;;;;;;;;;;;;6.44;100.00;97940.75;1653121;86;20234;-83
2022/02/16 00:08:16;;;;;;;;;;;;;;;6.43;100.00;97947.37;1654175;86;26165;-83
2022/02/16 00:10:43;;;;;;;;;;;;;;;6.41;100.00;97942.25;1649021;85;24645;-82
2022/02/16 00:13:09;;;;;;;;;;;;;;;6.39;100.00;97942.80;1648803;86;20221;-86
2022/02/16 00:15:35;;;;;;;;;;;;;;;6.37;100.00;97941.23;1656157;84;24805;-86
2022/02/16 00:18:01;;;;;;;;;;;;;;;6.37;100.00;97936.88;1650327;86;22019;-86
2022/02/16 00:20:27;;;;;;;;;;;;;;;6.36;100.00;97937.80;1654259;86;26106;-86
2022/02/16 00:22:53;;;;;;;;;;;;;;;6.34;100.00;97940.11;1651388;84;24550;-86
2022/02/16 00:25:19;;;;;;;;;;;;;;;6.30;100.00;97939.00;1654746;86;20302;-86
2022/02/16 00:27:46;;;;;;;;;;;;;;;6.24;100.00;97937.23;1657883;86;24778;-86
2022/02/16 00:30:12;;;;;;;;;;;;;;;6.21;100.00;97942.63;1630784;86;21972;-86
2022/02/16 00:32:38;;;;;;;;;;;;;;;6.15;100.00;97951.63;1653041;86;26020;-87
2022/02/16 00:35:04;;;;;;;;;;;;;;;6.11;100.00;97946.70;1650149;85;24401;-87
2022/02/16 00:37:31;;;;;;;;;;;;;;;6.11;100.00;97952.71;1648004;85;20496;-87
2022/02/16 00:40:05;;;;;;;;;;;;;;;6.10;100.00;97950.23;1654751;85;25490;-86
2022/02/16 00:42:31;;;;;;;;;;;;;;;6.09;100.00;97956.34;1653767;85;22092;-87
2022/02/16 00:44:57;;;;;;;;;;;;;;;6.05;100.00;97961.36;1630588;85;25836;-87
2022/02/16 00:47:23;;;;;;;;;;;;;;;6.02;100.00;97957.16;1650418;84;24382;-84
2022/02/16 00:49:49;;;;;;;;;;;;;;;6.06;100.00;97953.45;1654145;84;20331;-83
2022/02/16 00:52:17;;;;;;;;;;;;;;;6.08;100.00;97943.81;1621173;86;20229;-82
2022/02/16 00:54:43;;;;;;;;;;;;;;;6.09;100.00;97941.59;1624983;87;21999;-82
2022/02/16 00:57:09;;;;;;;;;;;;;;;6.15;100.00;97946.43;1625251;87;25974;-82
2022/02/16 00:59:35;;;;;;;;;;;;;;;6.17;100.00;97939.82;1625046;86;25253;-82
2022/02/16 01:02:02;;;;;;;;;;;;;;;6.21;100.00;97942.63;1619759;87;20241;-82
2022/02/16 01:04:28;;;;;;;;;;;;;;;6.22;100.00;97935.19;1620353;87;24761;-82
2022/02/16 01:06:54;;;;;;;;;;;;;;;6.20;100.00;97935.76;1608723;87;22783;-82
2022/02/16 01:09:20;;;;;;;;;;;;;;;6.19;100.00;97932.32;1615406;87;25983;-82
2022/02/16 01:11:46;;;;;;;;;;;;;;;6.20;100.00;97926.20;1624625;87;24490;-82
2022/02/16 01:14:12;;;;;;;;;;;;;;;6.25;100.00;97929.36;1623470;87;20382;-81
2022/02/16 01:16:38;;;;;;;;;;;;;;;6.31;100.00;97922.95;1625002;87;24792;-82
2022/02/16 01:19:06;;;;;;;;;;;;;;;6.32;100.00;97919.89;1622188;87;22051;-82
2022/02/16 01:21:32;;;;;;;;;;;;;;;6.38;100.00;97919.06;1623850;87;26686;-82
2022/02/16 01:23:58;;;;;;;;;;;;;;;6.41;100.00;97913.66;1623358;87;24472;-82
2022/02/16 01:26:25;;;;;;;;;;;;;;;6.44;100.00;97911.33;1624140;86;20274;-82
2022/02/16 01:28:51;;;;;;;;;;;;;;;6.44;100.00;97910.02;1625134;87;24727;-82
2022/02/16 01:31:17;;;;;;;;;;;;;;;6.42;100.00;97910.60;1624894;87;22051;-82
2022/02/16 01:33:45;;;;;;;;;;;;;;;6.32;100.00;97901.70;1625375;87;25982;-82
2022/02/16 01:36:12;;;;;;;;;;;;;;;6.26;100.00;97903.75;1622706;87;25175;-82
2022/02/16 01:38:38;;;;;;;;;;;;;;;6.22;100.00;97898.81;1620123;87;20344;-82
2022/02/16 01:41:04;;;;;;;;;;;;;;;6.21;100.00;97889.37;1622661;87;20252;-82
2022/02/16 01:43:30;;;;;;;;;;;;;;;6.20;100.00;97891.13;1623022;87;22066;-82
2022/02/16 01:45:56;;;;;;;;;;;;;;;6.22;100.00;97892.31;1624040;85;25969;-82
2022/02/16 01:48:24;;;;;;;;;;;;;;;6.22;100.00;97886.66;1623229;87;24414;-81
2022/02/16 01:50:50;;;;;;;;;;;;;;;6.22;100.00;97877.56;1632397;85;20300;-82
2022/02/16 01:53:16;;;;;;;;;;;;;;;6.25;100.00;97873.50;1649447;86;24841;-82
2022/02/16 01:55:44;;;;;;;;;;;;;;;6.24;100.00;97873.12;1652653;85;22697;-82
2022/02/16 01:58:10;;;;;;;;;;;;;;;6.24;100.00;97876.17;1649503;85;26114;-82
2022/02/16 02:00:36;;;;;;;;;;;;;;;6.23;100.00;97879.23;1653706;85;24433;-82
2022/02/16 02:03:02;;;;;;;;;;;;;;;6.16;100.00;97884.92;1654254;86;20280;-82
2022/02/16 02:05:30;;;;;;;;;;;;;;;6.10;100.00;97883.53;1651987;86;20977;-82
2022/02/16 02:07:56;;;;;;;;;;;;;;;6.07;100.00;97885.45;1635634;87;22179;-84
2022/02/16 02:10:22;;;;;;;;;;;;;;;6.05;100.00;97896.42;1634336;87;20966;-85
2022/02/16 02:12:51;;;;;;;;;;;;;;;6.01;100.00;97890.55;1636368;87;24475;-87
2022/02/16 02:15:19;;;;;;;;;;;;;;;6.03;100.00;97900.41;1637900;87;20211;-86
2022/02/16 02:17:46;;;;;;;;;;;;;;;6.08;100.00;97897.52;1636762;87;25513;-86
2022/02/16 02:20:25;;;;;;;;;;;;;;;6.11;100.00;97894.27;1666307;85;21998;-84
2022/02/16 02:22:56;;;;;;;;;;;;;;;6.12;100.00;97879.05;1635740;86;26993;-87
2022/02/16 02:25:29;;;;;;;;;;;;;;;6.18;100.00;97877.39;1635251;87;24552;-85
2022/02/16 02:27:55;;;;;;;;;;;;;;;6.21;100.00;97875.92;1647038;86;20541;-85
2022/02/16 02:30:21;;;;;;;;;;;;;;;6.24;100.00;97882.21;1643628;86;24771;-85
2022/02/16 02:32:53;;;;;;;;;;;;;;;6.26;100.00;97887.33;1647432;86;21975;-85
2022/02/16 02:35:19;;;;;;;;;;;;;;;6.34;100.00;97888.97;1643710;86;26088;-84
2022/02/16 02:37:45;;;;;;;;;;;;;;;6.30;100.00;97870.14;1648573;85;20273;-88
2022/02/16 02:40:11;;;;;;;;;;;;;;;6.31;100.00;97869.69;1645670;86;20447;-85
2022/02/16 02:42:43;;;;;;;;;;;;;;;6.38;100.00;97876.64;1647609;86;24791;-85
2022/02/16 02:45:10;;;;;;;;;;;;;;;6.45;100.00;97880.05;1634715;87;22063;-82
2022/02/16 02:47:36;;;;;;;;;;;;;;;6.52;100.00;97874.84;1646281;86;26110;-86
2022/02/16 02:50:03;;;;;;;;;;;;;;;6.56;100.00;97872.88;1647891;86;24475;-86
2022/02/16 02:52:31;;;;;;;;;;;;;;;6.55;100.00;97869.91;1617966;86;20522;-82
2022/02/16 02:54:59;;;;;;;;;;;;;;;6.52;100.00;97869.65;1629079;86;24820;-87
2022/02/16 02:57:25;;;;;;;;;;;;;;;6.50;100.00;97871.95;1627289;86;22069;-87
2022/02/16 02:59:51;;;;;;;;;;;;;;;6.49;100.00;97862.52;1637291;85;26008;-86
2022/02/16 03:02:23;;;;;;;;;;;;;;;6.49;100.00;97858.62;1627495;86;24524;-86
2022/02/16 03:04:49;;;;;;;;;;;;;;;6.42;100.00;97863.82;1628525;87;20187;-87
2022/02/16 03:07:15;;;;;;;;;;;;;;;6.42;100.00;97869.02;1626408;86;24839;-87
2022/02/16 03:09:44;;;;;;;;;;;;;;;6.41;100.00;97871.24;1628635;86;21929;-87
2022/02/16 03:12:10;;;;;;;;;;;;;;;6.36;100.00;97865.50;1627418;86;26076;-83
2022/02/16 03:14:36;;;;;;;;;;;;;;;6.29;100.00;97865.88;1627114;86;24472;-87
2022/02/16 03:17:06;;;;;;;;;;;;;;;6.22;100.00;97863.73;1636833;87;20567;-87
2022/02/16 03:19:35;;;;;;;;;;;;;;;6.22;100.00;97864.57;1636080;87;24779;-87
2022/02/16 03:22:01;;;;;;;;;;;;;;;6.22;100.00;97861.13;1635306;87;22001;-82
2022/02/16 03:24:28;;;;;;;;;;;;;;;6.22;100.00;97855.48;1634587;87;26066;-82
2022/02/16 03:26:54;;;;;;;;;;;;;;;6.24;100.00;97856.23;1636757;87;25196;-82
2022/02/16 03:29:20;;;;;;;;;;;;;;;6.23;100.00;97857.16;1638583;87;20249;-82
2022/02/16 03:31:47;;;;;;;;;;;;;;;6.24;100.00;97857.53;1639114;87;20281;-88
2022/02/16 03:34:15;;;;;;;;;;;;;;;6.29;100.00;97849.45;1639986;87;21654;-87
2022/02/16 03:36:41;;;;;;;;;;;;;;;6.34;100.00;97849.98;1637897;87;25973;-87
2022/02/16 03:39:10;;;;;;;;;;;;;;;6.38;100.00;97851.95;1634522;87;24407;-84
2022/02/16 03:41:37;;;;;;;;;;;;;;;6.40;100.00;97850.91;1637429;87;20366;-82
2022/02/16 03:44:04;;;;;;;;;;;;;;;6.42;100.00;97854.27;1636472;87;24745;-82
2022/02/16 03:46:30;;;;;;;;;;;;;;;6.45;100.00;97855.82;1623265;87;21759;-88
2022/02/16 03:48:56;;;;;;;;;;;;;;;6.45;100.00;97851.45;1640932;87;21216;-84
2022/02/16 03:51:22;;;;;;;;;;;;;;;6.44;100.00;97858.87;1633364;87;24499;-84
2022/02/16 03:53:48;;;;;;;;;;;;;;;6.38;100.00;97854.09;1620528;87;20316;-82
2022/02/16 03:56:14;;;;;;;;;;;;;;;6.52;100.00;97869.65;1631622;87;24830;-84
2022/02/16 03:58:40;;;;;;;;;;;;;;;6.53;100.00;97869.19;1631467;87;20900;-84
2022/02/16 04:01:06;;;;;;;;;;;;;;;6.55;100.00;97867.30;1633646;87;26033;-84
2022/02/16 04:03:33;;;;;;;;;;;;;;;6.58;100.00;97874.93;1633293;87;25410;-88
2022/02/16 04:06:05;;;;;;;;;;;;;;;6.58;100.00;97867.97;1631925;87;20186;-88
2022/02/16 04:08:31;;;;;;;;;;;;;;;6.61;100.00;97862.56;1628971;87;25583;-81
2022/02/16 04:10:57;;;;;;;;;;;;;;;6.57;100.00;97861.55;1630852;87;21903;-81
2022/02/16 04:13:23;;;;;;;;;;;;;;;6.58;100.00;97861.93;1631515;86;26727;-83
2022/02/16 04:15:49;;;;;;;;;;;;;;;6.57;100.00;97865.45;1631732;87;24421;-82
2022/02/16 04:18:15;;;;;;;;;;;;;;;6.59;100.00;97861.01;1632347;86;20402;-88
2022/02/16 04:20:41;;;;;;;;;;;;;;;6.58;100.00;97860.17;1620689;87;24700;-88
2022/02/16 04:23:09;;;;;;;;;;;;;;;6.59;100.00;97856.64;1629234;87;21929;-87
2022/02/16 04:25:37;;;;;;;;;;;;;;;6.63;100.00;97852.91;1617296;87;21160;-87
2022/02/16 04:28:05;;;;;;;;;;;;;;;6.63;100.00;97848.17;1632540;87;24430;-82
2022/02/16 04:30:31;;;;;;;;;;;;;;;6.59;100.00;97842.81;1629451;86;20463;-83
2022/02/16 04:32:57;;;;;;;;;;;;;;;6.53;100.00;97846.63;1629869;87;24995;-83
2022/02/16 04:35:24;;;;;;;;;;;;;;;6.48;100.00;97846.55;1632705;86;22035;-87
2022/02/16 04:37:50;;;;;;;;;;;;;;;6.46;100.00;97846.64;1630986;86;25992;-88
2022/02/16 04:40:16;;;;;;;;;;;;;;;6.47;100.00;97851.37;1629400;87;24527;-88
2022/02/16 04:42:43;;;;;;;;;;;;;;;6.49;100.00;97846.43;1629233;87;20205;-84
2022/02/16 04:45:10;;;;;;;;;;;;;;;6.53;100.00;97849.23;1631110;87;25495;-85
2022/02/16 04:47:36;;;;;;;;;;;;;;;6.54;100.00;97849.60;1631328;86;22087;-84
2022/02/16 04:50:03;;;;;;;;;;;;;;;6.60;100.00;97851.79;1631386;87;26073;-84
2022/02/16 04:52:34;;;;;;;;;;;;;;;6.63;100.00;97849.47;1632445;86;24514;-88
2022/02/16 04:54:58;;;;;;;;;;;;;;;6.67;100.00;97847.88;1642091;86;20223;-85
2022/02/16 04:57:27;;;;;;;;;;;;;;;6.65;100.00;97853.66;1634654;87;24943;-88
2022/02/16 04:59:58;;;;;;;;;;;;;;;6.66;100.00;97855.77;1634348;87;22261;-87
2022/02/16 05:02:21;;;;;;;;;;;;;;;6.69;100.00;97853.83;1636264;87;25998;-87
2022/02/16 05:04:47;;;;;;;;;;;;;;;6.68;100.00;97854.75;1633659;87;24489;-82
2022/02/16 05:07:13;;;;;;;;;;;;;;;6.70;100.00;97849.47;1631929;87;20547;-82
2022/02/16 05:09:39;;;;;;;;;;;;;;;6.67;100.00;97847.88;1626240;87;24762;-83
2022/02/16 05:12:06;;;;;;;;;;;;;;;6.65;100.00;97839.83;1619791;87;22123;-88
2022/02/16 05:14:32;;;;;;;;;;;;;;;6.64;100.00;97831.65;1632831;87;26224;-88
2022/02/16 05:16:58;;;;;;;;;;;;;;;6.67;100.00;97839.24;1636170;87;20312;-84
2022/02/16 05:19:24;;;;;;;;;;;;;;;6.65;100.00;97828.13;1634305;87;20307;-82
2022/02/16 05:21:50;;;;;;;;;;;;;;;6.66;100.00;97833.20;1631398;87;24788;-82
2022/02/16 05:24:16;;;;;;;;;;;;;;;6.69;100.00;97839.98;1629684;87;21952;-82
2022/02/16 05:29:19;;;;;;;;;;;;;;;6.72;100.00;97835.87;1654035;85;24681;-88
2022/02/16 05:31:48;;;;;;;;;;;;;;;6.72;100.00;97832.81;1626008;88;20326;-87
2022/02/16 05:34:16;;;;;;;;;;;;;;;6.64;100.00;97834.25;1624513;88;24844;-87
2022/02/16 05:36:43;;;;;;;;;;;;;;;6.58;100.00;97832.03;1651255;84;22119;-84
2022/02/16 05:39:09;;;;;;;;;;;;;;;6.56;100.00;97828.69;1627638;88;26057;-84
2022/02/16 05:41:35;;;;;;;;;;;;;;;6.54;100.00;97832.70;1619870;87;24427;-84
2022/02/16 05:44:01;;;;;;;;;;;;;;;6.51;100.00;97826.38;1635554;86;20211;-84
2022/02/16 05:46:27;;;;;;;;;;;;;;;6.53;100.00;97824.53;1635854;87;24840;-84
2022/02/16 05:48:53;;;;;;;;;;;;;;;6.57;100.00;97830.36;1639032;87;21948;-84
2022/02/16 05:51:21;;;;;;;;;;;;;;;6.54;100.00;97826.67;1638858;87;21026;-84
2022/02/16 05:53:47;;;;;;;;;;;;;;;6.55;100.00;97829.61;1637070;87;24398;-87
2022/02/16 05:56:13;;;;;;;;;;;;;;;6.54;100.00;97834.47;1635265;87;20367;-87
2022/02/16 05:58:39;;;;;;;;;;;;;;;6.53;100.00;97831.03;1634096;87;24752;-88
2022/02/16 06:01:05;;;;;;;;;;;;;;;6.53;100.00;97834.09;1641121;87;20812;-84
2022/02/16 06:03:33;;;;;;;;;;;;;;;6.51;100.00;97830.28;1637913;87;26833;-82
2022/02/16 06:06:01;;;;;;;;;;;;;;;6.49;100.00;97829.53;1636052;87;24583;-87
2022/02/16 06:08:27;;;;;;;;;;;;;;;6.49;100.00;97826.13;1635207;87;20207;-86
2022/02/16 06:10:56;;;;;;;;;;;;;;;6.50;100.00;97818.21;1635768;86;24789;-87
2022/02/16 06:13:23;;;;;;;;;;;;;;;6.51;100.00;97818.59;1639168;87;22074;-83
2022/02/16 06:15:48;;;;;;;;;;;;;;;6.48;100.00;97811.46;1634986;87;26822;-84
2022/02/16 06:18:14;;;;;;;;;;;;;;;6.43;100.00;97811.75;1639059;87;20888;-84
2022/02/16 06:20:40;;;;;;;;;;;;;;;6.41;100.00;97806.27;1639311;87;20221;-87
2022/02/16 06:23:06;;;;;;;;;;;;;;;6.41;100.00;97801.07;1638031;87;24816;-84
2022/02/16 06:25:32;;;;;;;;;;;;;;;6.42;100.00;97798.39;1636376;86;22192;-84
2022/02/16 06:28:03;;;;;;;;;;;;;;;6.45;100.00;97793.44;1634282;86;25840;-88
2022/02/16 06:30:29;;;;;;;;;;;;;;;6.48;100.00;97788.06;1650364;86;24586;-87
2022/02/16 06:32:57;;;;;;;;;;;;;;;6.48;100.00;97791.97;1649121;85;20345;-82
2022/02/16 06:35:38;;;;;;;;;;;;;;;6.46;100.00;97801.61;1649196;85;24973;-87
2022/02/16 06:38:06;;;;;;;;;;;;;;;6.37;100.00;97802.20;1663455;85;22144;-83
2022/02/16 06:40:33;;;;;;;;;;;;;;;6.37;100.00;97797.01;1657222;85;26076;-83
2022/02/16 06:42:59;;;;;;;;;;;;;;;6.38;100.00;97794.78;1655768;85;24443;-82
2022/02/16 06:45:26;;;;;;;;;;;;;;;6.39;100.00;97784.73;1657595;85;20224;-87
2022/02/16 06:47:52;;;;;;;;;;;;;;;6.43;100.00;97779.27;1659486;85;25325;-81
2022/02/16 06:50:18;;;;;;;;;;;;;;;6.50;100.00;97779.22;1659724;85;20352;-82
2022/02/16 06:52:44;;;;;;;;;;;;;;;6.52;100.00;97776.07;1645439;85;26048;-86
2022/02/16 06:55:10;;;;;;;;;;;;;;;6.55;100.00;97777.16;1628265;87;25239;-81
2022/02/16 06:57:36;;;;;;;;;;;;;;;6.52;100.00;97774.77;1626606;87;20179;-83
2022/02/16 07:00:06;;;;;;;;;;;;;;;6.49;100.00;97772.84;1624696;87;24822;-83
2022/02/16 07:02:32;;;;;;;;;;;;;;;6.46;100.00;97769.96;1629664;86;22020;-86
2022/02/16 07:04:58;;;;;;;;;;;;;;;6.47;100.00;97756.04;1631666;87;26170;-86
2022/02/16 07:07:26;;;;;;;;;;;;;;;6.48;100.00;97765.98;1628569;87;24444;-87
2022/02/16 07:09:52;;;;;;;;;;;;;;;6.46;100.00;97758.27;1627299;87;20565;-88
2022/02/16 07:12:18;;;;;;;;;;;;;;;6.43;100.00;97761.08;1628415;87;24744;-88
2022/02/16 07:14:47;;;;;;;;;;;;;;;6.43;100.00;97756.34;1629353;87;21980;-87
2022/02/16 07:17:12;;;;;;;;;;;;;;;6.39;100.00;97751.78;1627666;87;26292;-88
2022/02/16 07:19:44;;;;;;;;;;;;;;;6.36;100.00;97749.86;1626735;87;24467;-88
2022/02/16 07:22:10;;;;;;;;;;;;;;;6.37;100.00;97748.47;1630543;87;20219;-88
2022/02/16 07:24:36;;;;;;;;;;;;;;;6.34;100.00;97750.41;1628599;87;20259;-88
2022/02/16 07:27:03;;;;;;;;;;;;;;;6.34;100.00;97743.91;1628714;87;22065;-84
2022/02/16 07:29:29;;;;;;;;;;;;;;;6.29;100.00;97748.95;1627441;87;26140;-84
2022/02/16 07:31:55;;;;;;;;;;;;;;;6.30;100.00;97744.58;1630058;87;24455;-89
2022/02/16 07:34:30;;;;;;;;;;;;;;;6.28;100.00;97742.53;1629761;87;20195;-88
2022/02/16 07:36:55;;;;;;;;;;;;;;;6.30;100.00;97732.43;1626729;87;24790;-86
2022/02/16 07:39:27;;;;;;;;;;;;;;;6.34;100.00;97728.32;1629170;87;21928;-88
2022/02/16 07:41:49;;;;;;;;;;;;;;;6.38;100.00;97725.45;1626339;87;26058;-88
2022/02/16 07:44:15;;;;;;;;;;;;;;;6.41;100.00;97729.61;1626391;87;24505;-88
2022/02/16 07:46:41;;;;;;;;;;;;;;;6.43;100.00;97727.29;1626745;87;20582;-88
2022/02/16 07:49:08;;;;;;;;;;;;;;;6.46;100.00;97721.05;1627828;87;24741;-88
2022/02/16 07:51:34;;;;;;;;;;;;;;;6.45;100.00;97727.17;1626993;87;22006;-83
2022/02/16 07:54:00;;;;;;;;;;;;;;;6.49;100.00;97727.36;1626730;86;25978;-83
2022/02/16 07:56:26;;;;;;;;;;;;;;;6.49;100.00;97719.06;1628623;87;24682;-88
2022/02/16 07:58:52;;;;;;;;;;;;;;;6.50;100.00;97716.00;1627200;87;20347;-88
2022/02/16 08:01:18;;;;;;;;;;;;;;;6.52;100.00;97708.95;1628367;87;24782;-88
2022/02/16 08:03:44;;;;;;;;;;;;;;;6.53;100.00;97704.13;1629801;87;21979;-84
2022/02/16 08:06:10;;;;;;;;;;;;;;;6.52;100.00;97699.86;1627336;87;26072;-85
2022/02/16 08:08:44;;;;;;;;;;;;;;;6.57;100.00;97701.69;1628205;87;24703;-88
2022/02/16 08:11:10;;;;;;;;;;;;;;;6.57;100.00;97702.52;1631210;87;20201;-88
2022/02/16 08:13:36;;;;;;;;;;;;;;;6.60;100.00;97701.50;1628625;87;24830;-82
2022/02/16 08:16:02;;;;;;;;;;;;;;;6.64;100.00;97702.50;1627682;87;21842;-83
2022/02/16 08:18:28;;;;;;;;;;;;;;;6.71;100.00;97701.14;1628259;87;26043;-87
2022/02/16 08:20:54;;;;;;;;;;;;;;;6.79;100.00;97700.64;1629284;87;24501;-83
2022/02/16 08:23:21;;;;;;;;;;;;;;;6.86;100.00;97698.01;1627742;87;20324;-85
2022/02/16 08:25:47;;;;;;;;;;;;;;;6.91;100.00;97698.53;1627281;87;24733;-85
2022/02/16 08:28:14;;;;;;;;;;;;;;;6.97;100.00;97695.53;1627868;87;22670;-84
2022/02/16 08:30:42;;;;;;;;;;;;;;;7.04;100.00;97698.52;1627860;87;26110;-85
2022/02/16 08:33:11;;;;;;;;;;;;;;;7.09;100.00;97697.77;1628053;87;24553;-83
2022/02/16 08:35:38;;;;;;;;;;;;;;;7.14;100.00;97691.32;1629744;87;20520;-87
2022/02/16 08:38:06;;;;;;;;;;;;;;;7.22;100.00;97692.55;1628065;87;25417;-87
2022/02/16 08:40:34;;;;;;;;;;;;;;;7.28;100.00;97683.02;1627701;87;21731;-87
2022/02/16 08:43:06;;;;;;;;;;;;;;;7.35;100.00;97675.17;1626224;87;26019;-88
2022/02/16 08:45:37;;;;;;;;;;;;;;;7.42;100.00;97673.32;1628289;87;24520;-88
2022/02/16 08:48:14;;;;;;;;;;;;;;;7.48;100.00;97675.50;1627272;87;20369;-88
2022/02/16 08:50:40;;;;;;;;;;;;;;;7.54;100.00;97673.78;1625960;87;24793;-87
2022/02/16 08:53:06;;;;;;;;;;;;;;;7.58;100.00;97662.70;1637574;85;22232;-87
2022/02/16 08:55:32;;;;;;;;;;;;;;;7.62;100.00;97656.80;1654333;85;26056;-85
2022/02/16 08:57:59;;;;;;;;;;;;;;;7.68;100.00;97657.20;1658848;85;24462;-83
2022/02/16 09:00:26;;;;;;;;;;;;;;;7.73;100.00;97647.29;1663158;85;20582;-85
2022/02/16 09:02:52;;;;;;;;;;;;;;;7.82;100.00;97642.72;1655233;85;24898;-84
2022/02/16 09:05:18;;;;;;;;;;;;;;;7.87;100.00;97640.62;1659197;85;20290;-85
2022/02/16 09:07:44;;;;;;;;;;;;;;;7.91;100.00;97634.23;1663628;85;26008;-87
2022/02/16 09:10:14;;;;;;;;;;;;;;;7.95;100.00;97631.80;1655963;85;24659;-88
2022/02/16 09:12:40;;;;;;;;;;;;;;;7.98;100.00;97634.63;1630921;87;20242;-85
2022/02/16 09:15:07;;;;;;;;;;;;;;;8.04;100.00;97625.55;1628739;87;20370;-84
2022/02/16 09:17:33;;;;;;;;;;;;;;;8.10;100.00;97623.33;1625007;87;22051;-84
2022/02/16 09:20:00;;;;;;;;;;;;;;;8.13;100.00;97623.59;1627045;87;26054;-85
2022/02/16 09:22:26;;;;;;;;;;;;;;;8.14;100.00;97620.85;1626591;86;24570;-85
2022/02/16 09:24:53;;;;;;;;;;;;;;;8.22;100.00;97619.83;1627072;87;20217;-87
2022/02/16 09:27:22;;;;;;;;;;;;;;;8.26;100.00;97619.12;1625241;87;24822;-88
2022/02/16 09:29:57;;;;;;;;;;;;;;;8.31;100.00;97617.88;1627052;87;22074;-88
2022/02/16 09:32:23;;;;;;;;;;;;;;;8.38;100.00;97623.48;1636916;87;25986;-87
2022/02/16 09:34:51;;;;;;;;;;;;;;;8.44;100.00;97613.91;1635410;86;24640;-82
2022/02/16 09:37:17;;;;;;;;;;;;;;;8.50;100.00;97605.63;1633640;87;20252;-85
2022/02/16 09:39:43;;;;;;;;;;;;;;;8.59;100.00;97597.58;1647311;86;24899;-87
2022/02/16 09:42:09;;;;;;;;;;;;;;;8.66;99.67;97592.27;1650053;85;22046;-85
2022/02/16 09:44:47;;;;;;;;;;;;;;;8.73;99.04;97591.66;1636882;85;25966;-85
2022/02/16 09:47:15;;;;;;;;;;;;;;;8.80;98.07;97590.73;1647979;85;25271;-84
2022/02/16 09:49:52;;;;;;;;;;;;;;;8.83;96.96;97580.55;1648380;86;20228;-88
2022/02/16 09:52:20;;;;;;;;;;;;;;;8.84;95.83;97569.97;1634721;87;24732;-84
2022/02/16 09:54:48;;;;;;;;;;;;;;;8.86;94.55;97577.22;1647159;85;21994;-85
2022/02/16 09:57:14;;;;;;;;;;;;;;;8.91;93.71;97570.34;1646421;86;26122;-82
2022/02/16 09:59:40;;;;;;;;;;;;;;;8.96;92.85;97572.13;1645643;86;24526;-87
2022/02/16 10:02:10;;;;;;;;;;;;;;;8.99;92.04;97567.98;1641586;86;20179;-87
2022/02/16 10:04:37;;;;;;;;;;;;;;;9.02;91.29;97570.34;1632052;86;24924;-88
2022/02/16 10:07:22;;;;;;;;;;;;;;;9.03;90.52;97564.19;1632046;87;21725;-87
2022/02/16 10:09:48;;;;;;;;;;;;;;;9.06;89.82;97560.02;1638374;87;25968;-87
2022/02/16 10:12:15;;;;;;;;;;;;;;;9.12;89.11;97551.72;1631207;87;24502;-87
2022/02/16 10:14:41;;;;;;;;;;;;;;;9.18;88.41;97543.41;1630826;87;20394;-87
2022/02/16 10:17:26;;;;;;;;;;;;;;;9.19;87.31;97545.08;1632871;87;24712;-87
2022/02/16 10:19:53;;;;;;;;;;;;;;;9.24;86.39;97538.55;1630563;87;22132;-83
2022/02/16 10:22:21;;;;;;;;;;;;;;;9.28;85.17;97536.98;1631387;87;26077;-82
2022/02/16 10:24:47;;;;;;;;;;;;;;;9.33;84.27;97530.45;1626698;87;24787;-85
2022/02/16 10:27:21;;;;;;;;;;;;;;;9.36;83.40;97531.52;1630250;87;20247;-88
2022/02/16 10:29:47;;;;;;;;;;;;;;;9.38;82.41;97530.11;1636794;87;24918;-88
2022/02/16 10:32:18;;;;;;;;;;;;;;;9.41;81.59;97528.08;1631965;87;21944;-87
2022/02/16 10:34:48;;;;;;;;;;;;;;;9.44;81.02;97519.98;1635984;87;25959;-87
2022/02/16 10:37:19;;;;;;;;;;;;;;;9.52;80.74;97513.68;1622372;87;24581;-89
2022/02/16 10:40:02;;;;;;;;;;;;;;;9.55;80.21;97509.98;1631761;87;20241;-84
2022/02/16 10:42:30;;;;;;;;;;;;;;;9.57;79.71;97509.39;1631478;87;24753;-83
2022/02/16 10:45:04;;;;;;;;;;;;;;;9.59;79.15;97500.49;1635182;85;22180;-82
2022/02/16 10:47:32;;;;;;;;;;;;;;;9.58;78.51;97497.99;1634478;87;26057;-82
2022/02/16 10:49:59;;;;;;;;;;;;;;;9.61;77.88;97493.81;1628923;86;24485;-83
2022/02/16 10:52:25;;;;;;;;;;;;;;;9.59;77.26;97487.43;1636280;86;20331;-88
2022/02/16 10:54:53;;;;;;;;;;;;;;;9.56;76.51;97481.61;1637973;86;24851;-82
2022/02/16 10:57:20;;;;;;;;;;;;;;;9.54;75.91;97483.06;1656682;84;22109;-82
2022/02/16 10:59:46;;;;;;;;;;;;;;;9.59;75.59;97482.68;1651434;85;26116;-85
2022/02/16 11:02:14;;;;;;;;;;;;;;;9.60;75.11;97472.59;1648031;85;24406;-84
2022/02/16 11:04:41;;;;;;;;;;;;;;;9.57;74.57;97468.43;1637378;87;20255;-88
2022/02/16 11:07:09;;;;;;;;;;;;;;;9.58;74.10;97460.95;1633649;86;24883;-82
2022/02/16 11:09:37;;;;;;;;;;;;;;;9.60;73.69;97459.02;1634651;87;22954;-82
2022/02/16 11:12:03;;;;;;;;;;;;;;;9.63;73.28;97453.56;1632177;87;26754;-88
2022/02/16 11:14:31;;;;;;;;;;;;;;;9.64;72.69;97453.92;1631201;86;38478;-88
2022/02/16 11:16:58;;;;;;;;;;;;;;;9.68;72.28;97439.30;1649489;86;20295;-88
2022/02/16 11:19:26;;;;;;;;;;;;;;;9.69;71.80;97444.88;1636294;86;24417;-88
2022/02/16 11:21:59;;;;;;;;;;;;;;;9.66;71.19;97438.94;1612550;87;22657;-87
2022/02/16 11:24:27;;;;;;;;;;;;;;;9.68;70.68;97440.59;1634936;87;26169;-87
2022/02/16 11:26:53;;;;;;;;;;;;;;;9.74;70.37;97438.32;1625609;87;25238;-87
2022/02/16 11:29:27;;;;;;;;;;;;;;;9.78;69.95;97425.81;1648047;85;20174;-87
2022/02/16 11:31:55;;;;;;;;;;;;;;;9.73;69.12;97432.73;1650057;86;24950;-87
2022/02/16 11:34:23;;;;;;;;;;;;;;;9.71;68.23;97435.14;1634451;86;22080;-87
2022/02/16 11:36:52;;;;;;;;;;;;;;;9.74;67.77;97425.73;1648218;86;26035;-87
2022/02/16 11:39:36;;;;;;;;;;;;;;;9.81;67.52;97423.80;1631058;87;24567;-87
2022/02/16 11:42:02;;;;;;;;;;;;;;;9.85;67.23;97418.67;1626319;87;20258;-82
2022/02/16 11:44:49;;;;;;;;;;;;;;;9.93;66.97;97414.09;1649378;85;24752;-82
2022/02/16 11:47:35;;;;;;;;;;;;;;;10.01;66.85;97411.20;1625253;86;22143;-82
2022/02/16 11:50:16;;;;;;;;;;;;;;;10.08;66.58;97409.73;1649798;86;25728;-83
2022/02/16 11:52:44;;;;;;;;;;;;;;;10.10;65.92;97404.36;1653043;86;25210;-82
2022/02/16 11:55:24;;;;;;;;;;;;;;;10.09;65.43;97391.77;1661797;85;20260;-83
2022/02/16 11:58:08;;;;;;;;;;;;;;;10.12;65.08;97389.38;1626475;86;24888;-82
2022/02/16 12:00:38;;;;;;;;;;;;;;;10.19;64.74;97387.12;1648281;85;21977;-84
2022/02/16 12:03:09;;;;;;;;;;;;;;;10.24;64.35;97371.39;1651825;85;26660;-84
2022/02/16 12:05:53;;;;;;;;;;;;;;;10.23;63.79;97358.44;1639900;86;24680;-84
2022/02/16 12:08:27;;;;;;;;;;;;;;;10.15;62.92;97357.73;1624703;86;20343;-83
2022/02/16 12:10:55;;;;;;;;;;;;;;;10.18;62.48;97358.83;1637118;86;25421;-84
2022/02/16 12:13:32;;;;;;;;;;;;;;;10.26;62.29;97343.30;1647865;85;21998;-84
2022/02/16 12:16:00;;;;;;;;;;;;;;;10.29;62.03;97335.21;1625282;86;26277;-82
2022/02/16 12:18:29;;;;;;;;;;;;;;;10.32;61.67;97351.93;1610761;88;24630;-88
2022/02/16 12:20:56;;;;;;;;;;;;;;;10.34;61.23;97317.34;1668191;84;20252;-87
2022/02/16 12:23:27;;;;;;;;;;;;;;;10.40;60.75;97327.75;1608099;87;22944;-89
2022/02/16 12:26:13;;;;;;;;;;;;;;;10.45;60.44;97330.78;1648395;86;22058;-83
2022/02/16 12:28:46;;;;;;;;;;;;;;;10.49;60.11;97318.61;1644656;86;26860;-84
2022/02/16 12:31:12;;;;;;;;;;;;;;;10.55;59.59;97306.78;1648723;86;24580;-84
2022/02/16 12:33:38;;;;;;;;;;;;;;;10.54;58.87;97299.06;1647478;86;20537;-83
2022/02/16 12:36:06;;;;;;;;;;;;;;;10.59;58.49;97301.63;1623622;88;24746;-82
2022/02/16 12:38:33;;;;;;;;;;;;;;;10.66;58.24;97295.37;1647221;86;21994;-84
2022/02/16 12:41:01;;;;;;;;;;;;;;;10.71;57.75;97286.63;1652013;86;26149;-82
2022/02/16 12:43:29;;;;;;;;;;;;;;;10.74;57.40;97289.83;1645324;85;24443;-82
2022/02/16 12:45:55;;;;;;;;;;;;;;;10.78;57.04;97275.50;1646196;85;20524;-82
2022/02/16 12:48:21;;;;;;;;;;;;;;;10.80;56.66;97280.09;1647713;85;24807;-82
2022/02/16 12:50:47;;;;;;;;;;;;;;;10.84;56.40;97274.13;1648209;85;21974;-84
2022/02/16 12:53:16;;;;;;;;;;;;;;;10.89;56.21;97271.44;1643702;85;25986;-84